CheckWX is a tool to help pilots better visualize weather data.  It is not intended as a substitute for an official pre-flight weather briefing.

07:32:37 UTC

CYAM TAF
Sault Ste Marie Airport
Sault Ste Marie, Canada
TAF AMD CYAM 210451Z 2104/2114 VRB03KT 1/4SM FG VV001 TEMPO 2104/2108 6SM BR SCT001 FM210800 08008KT 1/2SM FG VV002 TEMPO 2108/2112 P6SM NSW SCT003 FM211200 08010G20KT P6SM SCT006 TEMPO 2112/2114 BKN006 RMK NXT FCST BY 210800Z

Oct-21@
04:00 UTC

Oct-21 @ 04:00 UTC

Oct-21@
08:00 UTC

Oct-21 @ 08:00 UTC

TAF AMD CYAM 210451Z 2104/2114 VRB03KT 1/4SM FG VV001
Wind
  • Variable at 3 KTS
Conditions
Fog
Cloud Levels
  • Vertical visibility at 100' AGL

Oct-21@
04:00 UTC

Oct-21 @ 04:00 UTC

Oct-21@
08:00 UTC

Oct-21 @ 08:00 UTC

TEMPO 2104/2108 6SM BR SCT001

Temporary

Temporary Changes expected for less than half the time period

Conditions
Mist
Cloud Levels
  • Scattered at 100' AGL

Oct-21@
08:00 UTC

Oct-21 @ 08:00 UTC

Oct-21@
12:00 UTC

Oct-21 @ 12:00 UTC

FM210800 08008KT 1/2SM FG VV002

From

From Standard forecast or significant change

Wind
  • 080° at 8 KTS
Conditions
Fog
Cloud Levels
  • Vertical visibility at 200' AGL

Oct-21@
08:00 UTC

Oct-21 @ 08:00 UTC

Oct-21@
12:00 UTC

Oct-21 @ 12:00 UTC

TEMPO 2108/2112 P6SM NSW SCT003

Temporary

Temporary Changes expected for less than half the time period

Conditions
No significant weather
Cloud Levels
  • Scattered at 300' AGL

Oct-21@
12:00 UTC

Oct-21 @ 12:00 UTC

Oct-21@
14:00 UTC

Oct-21 @ 14:00 UTC

FM211200 08010G20KT P6SM SCT006

From

From Standard forecast or significant change

Wind
  • 080° at 10 KTS
  • {Gusting to 20 KTS
Cloud Levels
  • Scattered at 600' AGL

Oct-21@
12:00 UTC

Oct-21 @ 12:00 UTC

Oct-21@
14:00 UTC

Oct-21 @ 14:00 UTC

TEMPO 2112/2114 BKN006 RMK NXT FCST BY 210800Z

Temporary

Temporary Changes expected for less than half the time period

Cloud Levels
  • Broken at 600' AGL